Portada
METAR-TAF:

METAR-TAF

Aeroports :

Raleigh-Durham International Airport

Raleigh-Durham, Carolina del Nord, Estats Units d'Amèrica

latitud: 35-52-14N, longitud: 078-47-11W, altitud: 133 m

Observació

L'informe es va fer fa 48 minuts, a les 21:51 UTC
Vent 5 kt del Nord-Est
Temperatura 3°C
Humitat 41%
Pressió 1028 hPa
Visibilitat: 16.1 km
Núvols disperses a una alçada de 25000 ft

METAR: KRDU 132151Z 05005KT 10SM SCT250 03/M09 A3036 RMK AO2 SLP285 T00281089

Hora: 17:39 (22:39 UTC)

Pronòstic

L'informe es va fer fa 5 hores i 0 minuts, a les 17:39 UTC
Pronòstic vàlid del 13 a les 18 UTC al 14 a les 18 UTC
Vent 7 kt del Nord-Est
Visibilitat: 10 km
Escasses núvols a una alçada de 25000 ft
A partir de les 14 a les 1500 UTC
Vent 4 kt del Nord/Nord-Est
Visibilitat: 10 km
Núvols disperses a una alçada de 2000 ft
Cel ennuvolat a una alçada de 4500 ft
Cel cobert a una alçada de 20000 ft

TAF: KRDU 131739Z 1318/1418 05007KT P6SM FEW250 FM141500 03004KT P6SM SCT020 BKN045 OVC200

Observacions i pronòstics meteorològics de més de 4000 aeroports (METAR i TAF).

Les estacions disponibles són els punts grocs i vermells al mapa.

Posi el ratolí al punt desitjat per veure el nom de l'estació.

Feu clic per veure les observacions i els pronòstics meteorològics.

Per canviar el mapa: feu clic els botons verds amb una creu de color negre per apropar; al botó verd amb un guió per allunyar la imatge; o en les fletxes verdes per a mapes adjacents.


METAR-TAF: